sensor_id;sensor_type;location;lat;lon;timestamp;pressure;altitude;pressure_sealevel;temperature;humidity
51227;BME280;42714;48.260;10.980;2023-05-21T00:00:39;966.1;;;15.9;100.0
51227;BME280;42714;48.260;10.980;2023-05-21T00:05:40;966.0;;;15.9;100.0
51227;BME280;42714;48.260;10.980;2023-05-21T00:10:41;966.0;;;16.0;100.0
51227;BME280;42714;48.260;10.980;2023-05-21T00:15:42;966.0;;;15.9;100.0
51227;BME280;42714;48.260;10.980;2023-05-21T00:20:43;965.9;;;15.7;100.0
51227;BME280;42714;48.260;10.980;2023-05-21T00:25:44;965.9;;;15.7;100.0
51227;BME280;42714;48.260;10.980;2023-05-21T00:30:45;965.9;;;15.6;100.0
51227;BME280;42714;48.260;10.980;2023-05-21T00:35:46;965.9;;;15.6;100.0
51227;BME280;42714;48.260;10.980;2023-05-21T00:40:47;965.9;;;15.5;100.0
51227;BME280;42714;48.260;10.980;2023-05-21T00:45:48;965.9;;;15.5;100.0
51227;BME280;42714;48.260;10.980;2023-05-21T00:50:49;966.0;;;15.5;100.0
51227;BME280;42714;48.260;10.980;2023-05-21T00:55:50;965.9;;;15.3;100.0
51227;BME280;42714;48.260;10.980;2023-05-21T01:00:51;965.9;;;15.2;100.0
51227;BME280;42714;48.260;10.980;2023-05-21T01:05:52;965.9;;;15.1;100.0
51227;BME280;42714;48.260;10.980;2023-05-21T01:10:53;966.0;;;15.1;100.0
51227;BME280;42714;48.260;10.980;2023-05-21T01:15:54;965.9;;;15.0;100.0
51227;BME280;42714;48.260;10.980;2023-05-21T01:20:55;965.8;;;15.0;100.0
51227;BME280;42714;48.260;10.980;2023-05-21T01:25:56;965.7;;;14.9;100.0
51227;BME280;42714;48.260;10.980;2023-05-21T01:30:57;965.8;;;14.9;100.0
51227;BME280;42714;48.260;10.980;2023-05-21T01:36:01;965.7;;;14.9;100.0
51227;BME280;42714;48.260;10.980;2023-05-21T01:41:01;965.8;;;14.8;100.0
51227;BME280;42714;48.260;10.980;2023-05-21T01:46:01;965.7;;;14.8;100.0
51227;BME280;42714;48.260;10.980;2023-05-21T01:51:02;965.7;;;14.7;100.0
51227;BME280;42714;48.260;10.980;2023-05-21T01:56:03;965.7;;;14.7;100.0
51227;BME280;42714;48.260;10.980;2023-05-21T02:01:04;965.7;;;14.7;100.0
51227;BME280;42714;48.260;10.980;2023-05-21T02:06:05;965.7;;;14.7;100.0
51227;BME280;42714;48.260;10.980;2023-05-21T02:11:06;965.7;;;14.7;100.0
51227;BME280;42714;48.260;10.980;2023-05-21T02:16:10;965.7;;;14.7;100.0
51227;BME280;42714;48.260;10.980;2023-05-21T02:21:08;965.7;;;14.7;100.0
51227;BME280;42714;48.260;10.980;2023-05-21T02:26:09;965.7;;;14.7;100.0
51227;BME280;42714;48.260;10.980;2023-05-21T02:31:10;965.7;;;14.6;100.0
51227;BME280;42714;48.260;10.980;2023-05-21T02:36:11;965.7;;;14.6;100.0
51227;BME280;42714;48.260;10.980;2023-05-21T02:41:12;965.6;;;14.5;100.0
51227;BME280;42714;48.260;10.980;2023-05-21T02:46:13;965.6;;;14.5;100.0
51227;BME280;42714;48.260;10.980;2023-05-21T02:51:14;965.6;;;14.5;100.0
51227;BME280;42714;48.260;10.980;2023-05-21T02:56:15;965.6;;;14.5;100.0
51227;BME280;42714;48.260;10.980;2023-05-21T03:01:16;965.6;;;14.4;100.0
51227;BME280;42714;48.260;10.980;2023-05-21T03:06:17;965.6;;;14.4;100.0
51227;BME280;42714;48.260;10.980;2023-05-21T03:11:18;965.5;;;14.3;100.0
51227;BME280;42714;48.260;10.980;2023-05-21T03:16:19;965.6;;;14.3;100.0
51227;BME280;42714;48.260;10.980;2023-05-21T03:21:20;965.5;;;14.2;100.0
51227;BME280;42714;48.260;10.980;2023-05-21T03:26:21;965.5;;;14.2;100.0
51227;BME280;42714;48.260;10.980;2023-05-21T03:31:22;965.5;;;14.2;100.0
51227;BME280;42714;48.260;10.980;2023-05-21T03:36:23;965.5;;;14.1;100.0
51227;BME280;42714;48.260;10.980;2023-05-21T03:41:24;965.5;;;14.0;100.0
51227;BME280;42714;48.260;10.980;2023-05-21T03:46:25;965.5;;;14.0;100.0
51227;BME280;42714;48.260;10.980;2023-05-21T03:51:26;965.5;;;14.0;100.0
51227;BME280;42714;48.260;10.980;2023-05-21T03:56:27;965.5;;;14.0;100.0
51227;BME280;42714;48.260;10.980;2023-05-21T04:01:28;965.6;;;14.0;100.0
51227;BME280;42714;48.260;10.980;2023-05-21T04:06:29;965.6;;;14.2;100.0
51227;BME280;42714;48.260;10.980;2023-05-21T04:11:30;965.6;;;14.1;100.0
51227;BME280;42714;48.260;10.980;2023-05-21T04:16:31;965.6;;;14.1;100.0
51227;BME280;42714;48.260;10.980;2023-05-21T04:21:32;965.6;;;14.3;100.0
51227;BME280;42714;48.260;10.980;2023-05-21T04:26:33;965.7;;;14.4;100.0
51227;BME280;42714;48.260;10.980;2023-05-21T04:31:34;965.7;;;14.3;100.0
51227;BME280;42714;48.260;10.980;2023-05-21T04:36:35;965.8;;;14.4;100.0
51227;BME280;42714;48.260;10.980;2023-05-21T04:41:36;965.8;;;14.6;100.0
51227;BME280;42714;48.260;10.980;2023-05-21T04:46:37;965.8;;;14.6;100.0
51227;BME280;42714;48.260;10.980;2023-05-21T04:51:38;965.9;;;14.6;100.0
51227;BME280;42714;48.260;10.980;2023-05-21T04:56:39;965.9;;;14.5;100.0
51227;BME280;42714;48.260;10.980;2023-05-21T05:01:40;966.0;;;14.7;100.0
51227;BME280;42714;48.260;10.980;2023-05-21T05:06:41;965.9;;;14.9;100.0
51227;BME280;42714;48.260;10.980;2023-05-21T05:11:42;965.9;;;15.2;100.0
51227;BME280;42714;48.260;10.980;2023-05-21T05:16:43;965.9;;;15.4;100.0
51227;BME280;42714;48.260;10.980;2023-05-21T05:21:44;965.9;;;15.6;100.0
51227;BME280;42714;48.260;10.980;2023-05-21T05:26:45;965.9;;;16.0;100.0
51227;BME280;42714;48.260;10.980;2023-05-21T05:31:46;965.9;;;16.1;100.0
51227;BME280;42714;48.260;10.980;2023-05-21T05:36:47;965.9;;;16.4;100.0
51227;BME280;42714;48.260;10.980;2023-05-21T05:41:48;965.9;;;16.6;100.0
51227;BME280;42714;48.260;10.980;2023-05-21T05:46:49;965.8;;;16.8;100.0
51227;BME280;42714;48.260;10.980;2023-05-21T05:51:50;965.9;;;17.1;100.0
51227;BME280;42714;48.260;10.980;2023-05-21T05:56:51;965.9;;;17.1;100.0
51227;BME280;42714;48.260;10.980;2023-05-21T06:01:52;965.9;;;17.3;100.0
51227;BME280;42714;48.260;10.980;2023-05-21T06:06:53;965.9;;;17.5;100.0
51227;BME280;42714;48.260;10.980;2023-05-21T06:11:54;965.9;;;17.9;100.0
51227;BME280;42714;48.260;10.980;2023-05-21T06:16:55;966.0;;;17.5;100.0
51227;BME280;42714;48.260;10.980;2023-05-21T06:21:56;965.9;;;17.8;100.0
51227;BME280;42714;48.260;10.980;2023-05-21T06:26:57;966.0;;;18.2;100.0
51227;BME280;42714;48.260;10.980;2023-05-21T06:31:58;965.9;;;18.6;100.0
51227;BME280;42714;48.260;10.980;2023-05-21T06:36:59;965.9;;;19.0;100.0
51227;BME280;42714;48.260;10.980;2023-05-21T06:42:00;965.9;;;19.1;97.9
51227;BME280;42714;48.260;10.980;2023-05-21T06:47:01;966.0;;;19.1;93.2
51227;BME280;42714;48.260;10.980;2023-05-21T06:52:02;966.0;;;19.2;93.7
51227;BME280;42714;48.260;10.980;2023-05-21T06:57:03;966.0;;;19.4;96.6
51227;BME280;42714;48.260;10.980;2023-05-21T07:02:04;966.0;;;19.9;85.2
51227;BME280;42714;48.260;10.980;2023-05-21T07:07:05;966.0;;;19.3;93.8
51227;BME280;42714;48.260;10.980;2023-05-21T07:12:06;966.0;;;19.5;90.4
51227;BME280;42714;48.260;10.980;2023-05-21T07:17:07;966.0;;;19.5;87.9
51227;BME280;42714;48.260;10.980;2023-05-21T07:22:08;966.0;;;20.1;80.1
51227;BME280;42714;48.260;10.980;2023-05-21T07:27:09;966.0;;;20.0;81.7
51227;BME280;42714;48.260;10.980;2023-05-21T07:32:10;966.0;;;20.0;84.3
51227;BME280;42714;48.260;10.980;2023-05-21T07:37:11;966.1;;;20.8;74.9
51227;BME280;42714;48.260;10.980;2023-05-21T07:42:12;966.0;;;20.7;76.4
51227;BME280;42714;48.260;10.980;2023-05-21T07:47:13;966.0;;;21.1;80.5
51227;BME280;42714;48.260;10.980;2023-05-21T07:52:14;966.0;;;21.8;73.3
51227;BME280;42714;48.260;10.980;2023-05-21T07:57:15;966.0;;;22.2;65.8
51227;BME280;42714;48.260;10.980;2023-05-21T08:02:16;966.0;;;22.8;67.3
51227;BME280;42714;48.260;10.980;2023-05-21T08:07:17;966.0;;;23.2;58.9
51227;BME280;42714;48.260;10.980;2023-05-21T08:12:18;966.0;;;23.2;56.7
51227;BME280;42714;48.260;10.980;2023-05-21T08:17:19;966.1;;;23.1;55.9
51227;BME280;42714;48.260;10.980;2023-05-21T08:22:20;966.1;;;23.3;57.3
51227;BME280;42714;48.260;10.980;2023-05-21T08:27:21;966.1;;;24.4;53.5
51227;BME280;42714;48.260;10.980;2023-05-21T08:32:22;966.1;;;25.7;48.2
51227;BME280;42714;48.260;10.980;2023-05-21T08:37:23;966.1;;;26.0;45.4
51227;BME280;42714;48.260;10.980;2023-05-21T08:42:26;966.1;;;26.3;44.4
51227;BME280;42714;48.260;10.980;2023-05-21T08:47:25;966.1;;;26.3;44.7
51227;BME280;42714;48.260;10.980;2023-05-21T08:52:26;966.1;;;26.2;45.7
51227;BME280;42714;48.260;10.980;2023-05-21T08:57:27;966.1;;;26.7;45.1
51227;BME280;42714;48.260;10.980;2023-05-21T09:02:28;966.1;;;27.8;41.9
51227;BME280;42714;48.260;10.980;2023-05-21T09:07:29;966.2;;;29.1;39.1
51227;BME280;42714;48.260;10.980;2023-05-21T09:12:30;966.1;;;29.8;36.9
51227;BME280;42714;48.260;10.980;2023-05-21T09:17:31;966.0;;;31.2;35.3
51227;BME280;42714;48.260;10.980;2023-05-21T09:22:32;966.0;;;32.0;32.5
51227;BME280;42714;48.260;10.980;2023-05-21T09:27:33;966.0;;;32.1;34.0
51227;BME280;42714;48.260;10.980;2023-05-21T09:32:34;966.0;;;33.3;30.6
51227;BME280;42714;48.260;10.980;2023-05-21T09:37:36;966.0;;;34.5;28.5
51227;BME280;42714;48.260;10.980;2023-05-21T09:42:37;965.9;;;35.6;26.8
51227;BME280;42714;48.260;10.980;2023-05-21T09:47:39;965.8;;;36.3;26.3
51227;BME280;42714;48.260;10.980;2023-05-21T09:52:38;965.7;;;37.3;23.9
51227;BME280;42714;48.260;10.980;2023-05-21T09:57:40;965.7;;;37.8;23.2
51227;BME280;42714;48.260;10.980;2023-05-21T10:02:40;965.7;;;38.4;21.8
51227;BME280;42714;48.260;10.980;2023-05-21T10:07:42;965.7;;;38.6;20.4
51227;BME280;42714;48.260;10.980;2023-05-21T10:12:42;965.7;;;37.4;20.4
51227;BME280;42714;48.260;10.980;2023-05-21T10:17:43;965.8;;;35.0;22.7
51227;BME280;42714;48.260;10.980;2023-05-21T10:22:44;965.8;;;34.1;24.6
51227;BME280;42714;48.260;10.980;2023-05-21T10:27:45;965.8;;;34.4;24.0
51227;BME280;42714;48.260;10.980;2023-05-21T10:32:46;965.7;;;33.8;25.0
51227;BME280;42714;48.260;10.980;2023-05-21T10:37:47;965.7;;;34.6;24.0
51227;BME280;42714;48.260;10.980;2023-05-21T10:42:55;965.7;;;35.1;23.4
51227;BME280;42714;48.260;10.980;2023-05-21T10:48:15;965.7;;;33.3;24.3
51227;BME280;42714;48.260;10.980;2023-05-21T10:52:54;965.9;;;30.9;26.5
51227;BME280;42714;48.260;10.980;2023-05-21T10:57:57;965.9;;;29.9;28.2
51227;BME280;42714;48.260;10.980;2023-05-21T11:02:52;965.9;;;30.0;29.1
51227;BME280;42714;48.260;10.980;2023-05-21T11:13:05;965.9;;;29.7;29.5
51227;BME280;42714;48.260;10.980;2023-05-21T11:17:55;965.9;;;29.0;31.8
51227;BME280;42714;48.260;10.980;2023-05-21T11:22:56;965.8;;;28.4;32.1
51227;BME280;42714;48.260;10.980;2023-05-21T11:27:59;965.9;;;28.9;31.4
51227;BME280;42714;48.260;10.980;2023-05-21T11:37:59;965.8;;;29.4;31.1
51227;BME280;42714;48.260;10.980;2023-05-21T11:43:00;965.8;;;28.5;34.3
51227;BME280;42714;48.260;10.980;2023-05-21T11:48:01;965.8;;;29.0;33.9
51227;BME280;42714;48.260;10.980;2023-05-21T11:53:02;965.7;;;30.2;33.7
51227;BME280;42714;48.260;10.980;2023-05-21T11:58:03;965.7;;;31.3;31.3
51227;BME280;42714;48.260;10.980;2023-05-21T12:03:04;965.7;;;31.7;32.7
51227;BME280;42714;48.260;10.980;2023-05-21T12:08:05;965.7;;;31.9;32.5
51227;BME280;42714;48.260;10.980;2023-05-21T12:13:06;965.7;;;32.2;32.3
51227;BME280;42714;48.260;10.980;2023-05-21T12:18:07;965.7;;;32.3;32.6
51227;BME280;42714;48.260;10.980;2023-05-21T12:23:17;965.6;;;32.2;30.4
51227;BME280;42714;48.260;10.980;2023-05-21T12:28:09;965.6;;;32.5;29.2
51227;BME280;42714;48.260;10.980;2023-05-21T12:33:10;965.6;;;31.7;29.5
51227;BME280;42714;48.260;10.980;2023-05-21T12:38:11;965.7;;;32.3;29.7
51227;BME280;42714;48.260;10.980;2023-05-21T12:43:12;965.7;;;32.1;26.2
51227;BME280;42714;48.260;10.980;2023-05-21T12:48:13;965.6;;;31.9;25.2
51227;BME280;42714;48.260;10.980;2023-05-21T12:53:14;965.6;;;32.5;25.7
51227;BME280;42714;48.260;10.980;2023-05-21T12:58:20;965.6;;;33.0;23.7
51227;BME280;42714;48.260;10.980;2023-05-21T13:03:16;965.6;;;32.1;25.1
51227;BME280;42714;48.260;10.980;2023-05-21T13:08:17;965.5;;;32.2;24.5
51227;BME280;42714;48.260;10.980;2023-05-21T13:13:18;965.5;;;32.4;26.1
51227;BME280;42714;48.260;10.980;2023-05-21T13:18:20;965.5;;;33.3;24.1
51227;BME280;42714;48.260;10.980;2023-05-21T13:23:20;965.4;;;33.7;24.4
51227;BME280;42714;48.260;10.980;2023-05-21T13:28:21;965.4;;;33.8;24.5
51227;BME280;42714;48.260;10.980;2023-05-21T13:33:22;965.5;;;33.7;24.8
51227;BME280;42714;48.260;10.980;2023-05-21T13:38:23;965.5;;;32.6;26.5
51227;BME280;42714;48.260;10.980;2023-05-21T13:43:24;965.5;;;31.3;27.8
51227;BME280;42714;48.260;10.980;2023-05-21T13:48:25;965.5;;;30.6;27.0
51227;BME280;42714;48.260;10.980;2023-05-21T13:53:26;965.5;;;30.8;28.0
51227;BME280;42714;48.260;10.980;2023-05-21T13:58:27;965.4;;;31.2;26.0
51227;BME280;42714;48.260;10.980;2023-05-21T14:03:28;965.4;;;31.4;27.1
51227;BME280;42714;48.260;10.980;2023-05-21T14:08:29;965.3;;;31.0;27.0
51227;BME280;42714;48.260;10.980;2023-05-21T14:13:30;965.3;;;30.4;27.1
51227;BME280;42714;48.260;10.980;2023-05-21T14:18:31;965.3;;;30.0;27.5
51227;BME280;42714;48.260;10.980;2023-05-21T14:23:32;965.3;;;29.4;27.1
51227;BME280;42714;48.260;10.980;2023-05-21T14:28:33;965.3;;;29.4;28.9
51227;BME280;42714;48.260;10.980;2023-05-21T14:33:35;965.3;;;29.5;28.2
51227;BME280;42714;48.260;10.980;2023-05-21T14:38:35;965.3;;;29.5;28.0
51227;BME280;42714;48.260;10.980;2023-05-21T14:43:36;965.2;;;29.4;27.7
51227;BME280;42714;48.260;10.980;2023-05-21T14:48:37;965.2;;;29.5;27.5
51227;BME280;42714;48.260;10.980;2023-05-21T14:53:39;965.2;;;29.5;28.4
51227;BME280;42714;48.260;10.980;2023-05-21T14:58:39;965.2;;;29.3;29.7
51227;BME280;42714;48.260;10.980;2023-05-21T15:03:40;965.2;;;29.1;30.6
51227;BME280;42714;48.260;10.980;2023-05-21T15:08:41;965.2;;;28.8;30.3
51227;BME280;42714;48.260;10.980;2023-05-21T15:13:42;965.2;;;28.4;31.0
51227;BME280;42714;48.260;10.980;2023-05-21T15:18:43;965.2;;;28.2;32.2
51227;BME280;42714;48.260;10.980;2023-05-21T15:23:44;965.1;;;28.0;32.8
51227;BME280;42714;48.260;10.980;2023-05-21T15:28:45;965.1;;;28.0;32.9
51227;BME280;42714;48.260;10.980;2023-05-21T15:33:46;965.1;;;27.8;33.6
51227;BME280;42714;48.260;10.980;2023-05-21T15:38:47;965.1;;;27.7;34.6
51227;BME280;42714;48.260;10.980;2023-05-21T15:43:48;965.0;;;27.5;36.4
51227;BME280;42714;48.260;10.980;2023-05-21T15:48:49;965.1;;;27.5;37.6
51227;BME280;42714;48.260;10.980;2023-05-21T15:53:50;965.0;;;27.5;37.1
51227;BME280;42714;48.260;10.980;2023-05-21T15:58:51;965.0;;;27.4;37.0
51227;BME280;42714;48.260;10.980;2023-05-21T16:03:53;965.0;;;27.3;38.8
51227;BME280;42714;48.260;10.980;2023-05-21T16:08:53;964.9;;;27.5;37.1
51227;BME280;42714;48.260;10.980;2023-05-21T16:13:54;964.8;;;27.4;38.1
51227;BME280;42714;48.260;10.980;2023-05-21T16:18:55;964.8;;;27.5;38.9
51227;BME280;42714;48.260;10.980;2023-05-21T16:23:56;964.8;;;27.5;39.2
51227;BME280;42714;48.260;10.980;2023-05-21T16:28:57;964.7;;;27.5;38.3
51227;BME280;42714;48.260;10.980;2023-05-21T16:33:58;964.7;;;27.2;40.2
51227;BME280;42714;48.260;10.980;2023-05-21T16:38:59;964.8;;;27.1;38.5
51227;BME280;42714;48.260;10.980;2023-05-21T16:44:00;964.8;;;26.9;37.8
51227;BME280;42714;48.260;10.980;2023-05-21T16:49:01;964.9;;;26.9;36.7
51227;BME280;42714;48.260;10.980;2023-05-21T16:54:02;964.9;;;26.5;37.2
51227;BME280;42714;48.260;10.980;2023-05-21T16:59:03;964.9;;;26.1;38.9
51227;BME280;42714;48.260;10.980;2023-05-21T17:04:04;965.0;;;25.9;39.7
51227;BME280;42714;48.260;10.980;2023-05-21T17:09:05;965.0;;;25.5;41.7
51227;BME280;42714;48.260;10.980;2023-05-21T17:14:06;965.0;;;25.3;42.5
51227;BME280;42714;48.260;10.980;2023-05-21T17:19:07;965.0;;;25.0;44.0
51227;BME280;42714;48.260;10.980;2023-05-21T17:24:08;964.9;;;24.8;45.0
51227;BME280;42714;48.260;10.980;2023-05-21T17:29:09;965.0;;;24.5;47.4
51227;BME280;42714;48.260;10.980;2023-05-21T17:34:10;965.0;;;24.3;48.5
51227;BME280;42714;48.260;10.980;2023-05-21T17:39:11;965.1;;;24.1;49.9
51227;BME280;42714;48.260;10.980;2023-05-21T17:44:13;965.1;;;23.9;52.4
51227;BME280;42714;48.260;10.980;2023-05-21T17:49:13;965.1;;;23.7;54.4
51227;BME280;42714;48.260;10.980;2023-05-21T17:54:14;965.1;;;23.5;58.1
51227;BME280;42714;48.260;10.980;2023-05-21T17:59:15;965.2;;;23.3;61.3
51227;BME280;42714;48.260;10.980;2023-05-21T18:04:16;965.2;;;23.1;63.8
51227;BME280;42714;48.260;10.980;2023-05-21T18:09:17;965.2;;;23.0;67.5
51227;BME280;42714;48.260;10.980;2023-05-21T18:14:18;965.3;;;22.8;70.1
51227;BME280;42714;48.260;10.980;2023-05-21T18:19:19;965.3;;;22.7;73.0
51227;BME280;42714;48.260;10.980;2023-05-21T18:24:20;965.3;;;22.6;75.1
51227;BME280;42714;48.260;10.980;2023-05-21T18:29:22;965.3;;;22.4;78.1
51227;BME280;42714;48.260;10.980;2023-05-21T18:34:23;965.3;;;22.3;81.0
51227;BME280;42714;48.260;10.980;2023-05-21T18:39:24;965.3;;;22.1;84.3
51227;BME280;42714;48.260;10.980;2023-05-21T18:44:25;965.3;;;21.9;86.9
51227;BME280;42714;48.260;10.980;2023-05-21T18:49:26;965.4;;;21.7;90.2
51227;BME280;42714;48.260;10.980;2023-05-21T18:54:27;965.4;;;21.6;92.6
51227;BME280;42714;48.260;10.980;2023-05-21T18:59:28;965.5;;;21.5;95.3
51227;BME280;42714;48.260;10.980;2023-05-21T19:04:29;965.5;;;21.3;98.4
51227;BME280;42714;48.260;10.980;2023-05-21T19:09:30;965.5;;;21.2;100.0
51227;BME280;42714;48.260;10.980;2023-05-21T19:14:31;965.5;;;21.0;100.0
51227;BME280;42714;48.260;10.980;2023-05-21T19:19:32;965.5;;;21.0;100.0
51227;BME280;42714;48.260;10.980;2023-05-21T19:24:33;965.5;;;20.8;100.0
51227;BME280;42714;48.260;10.980;2023-05-21T19:29:34;965.6;;;20.7;100.0
51227;BME280;42714;48.260;10.980;2023-05-21T19:34:35;965.6;;;20.6;100.0
51227;BME280;42714;48.260;10.980;2023-05-21T19:39:36;965.7;;;20.5;100.0
51227;BME280;42714;48.260;10.980;2023-05-21T19:44:37;965.7;;;20.4;100.0
51227;BME280;42714;48.260;10.980;2023-05-21T19:49:38;965.7;;;20.3;100.0
51227;BME280;42714;48.260;10.980;2023-05-21T19:54:39;965.8;;;20.2;100.0
51227;BME280;42714;48.260;10.980;2023-05-21T19:59:40;965.8;;;20.2;100.0
51227;BME280;42714;48.260;10.980;2023-05-21T20:04:41;965.8;;;20.1;100.0
51227;BME280;42714;48.260;10.980;2023-05-21T20:09:42;965.8;;;20.0;100.0
51227;BME280;42714;48.260;10.980;2023-05-21T20:14:43;965.8;;;20.0;100.0
51227;BME280;42714;48.260;10.980;2023-05-21T20:19:44;965.9;;;20.1;100.0
51227;BME280;42714;48.260;10.980;2023-05-21T20:24:45;965.8;;;20.1;100.0
51227;BME280;42714;48.260;10.980;2023-05-21T20:29:46;965.8;;;20.0;100.0
51227;BME280;42714;48.260;10.980;2023-05-21T20:34:47;965.8;;;19.9;100.0
51227;BME280;42714;48.260;10.980;2023-05-21T20:39:48;965.8;;;19.8;100.0
51227;BME280;42714;48.260;10.980;2023-05-21T20:44:49;965.7;;;19.8;100.0
51227;BME280;42714;48.260;10.980;2023-05-21T20:49:50;965.7;;;19.8;100.0
51227;BME280;42714;48.260;10.980;2023-05-21T20:54:51;965.7;;;19.6;100.0
51227;BME280;42714;48.260;10.980;2023-05-21T20:59:52;965.7;;;19.5;100.0
51227;BME280;42714;48.260;10.980;2023-05-21T21:04:53;965.7;;;19.4;100.0
51227;BME280;42714;48.260;10.980;2023-05-21T21:09:54;965.8;;;19.3;100.0
51227;BME280;42714;48.260;10.980;2023-05-21T21:14:55;965.8;;;19.1;100.0
51227;BME280;42714;48.260;10.980;2023-05-21T21:19:56;965.9;;;19.0;100.0
51227;BME280;42714;48.260;10.980;2023-05-21T21:24:57;965.9;;;18.9;100.0
51227;BME280;42714;48.260;10.980;2023-05-21T21:29:58;965.8;;;18.7;100.0
51227;BME280;42714;48.260;10.980;2023-05-21T21:34:59;965.8;;;18.6;100.0
51227;BME280;42714;48.260;10.980;2023-05-21T21:40:00;965.8;;;18.5;100.0
51227;BME280;42714;48.260;10.980;2023-05-21T21:45:01;965.8;;;18.4;100.0
51227;BME280;42714;48.260;10.980;2023-05-21T21:50:02;965.9;;;18.3;100.0
51227;BME280;42714;48.260;10.980;2023-05-21T22:05:05;965.9;;;18.0;100.0
51227;BME280;42714;48.260;10.980;2023-05-21T22:10:06;965.9;;;17.9;100.0
51227;BME280;42714;48.260;10.980;2023-05-21T22:25:09;966.0;;;17.5;100.0
51227;BME280;42714;48.260;10.980;2023-05-21T22:30:10;966.0;;;17.4;100.0
51227;BME280;42714;48.260;10.980;2023-05-21T22:35:11;966.0;;;17.3;100.0
51227;BME280;42714;48.260;10.980;2023-05-21T22:40:12;966.0;;;17.2;100.0
51227;BME280;42714;48.260;10.980;2023-05-21T22:45:13;965.9;;;17.1;100.0
51227;BME280;42714;48.260;10.980;2023-05-21T22:50:14;965.9;;;17.1;100.0
51227;BME280;42714;48.260;10.980;2023-05-21T22:55:15;965.9;;;17.0;100.0
51227;BME280;42714;48.260;10.980;2023-05-21T23:00:16;965.9;;;17.0;100.0
51227;BME280;42714;48.260;10.980;2023-05-21T23:05:17;965.9;;;16.9;100.0
51227;BME280;42714;48.260;10.980;2023-05-21T23:10:18;965.9;;;16.8;100.0
51227;BME280;42714;48.260;10.980;2023-05-21T23:15:19;966.0;;;16.6;100.0
51227;BME280;42714;48.260;10.980;2023-05-21T23:20:20;966.0;;;16.4;100.0
51227;BME280;42714;48.260;10.980;2023-05-21T23:25:21;966.0;;;16.2;100.0
51227;BME280;42714;48.260;10.980;2023-05-21T23:30:22;966.1;;;15.9;100.0
51227;BME280;42714;48.260;10.980;2023-05-21T23:35:23;966.1;;;15.8;100.0
51227;BME280;42714;48.260;10.980;2023-05-21T23:40:24;966.1;;;15.6;100.0
51227;BME280;42714;48.260;10.980;2023-05-21T23:45:25;966.1;;;15.5;100.0
51227;BME280;42714;48.260;10.980;2023-05-21T23:50:26;966.0;;;15.3;100.0
51227;BME280;42714;48.260;10.980;2023-05-21T23:55:27;966.1;;;15.2;100.0
